Timeline UpdatesTrip UpdatesNews PostsPvt PostsTravel TipsAdmin PostsConv PostsFollowed PostsChat RequestsBlog PostsPNR Posts

Disclaimer
Search
 
 
Thu Oct 2, 2014 01:52:47 ISTHomeTrainsΣChainsAtlasPNRForumGalleryNewsFAQTripsMembersLoginFeedback
No Recent News for this Train
Other Trains in the News **new
Latest...
.
Sat Jan 26, 2013 (03:08PM)
⇐ Return Journey: Train# 59440

59439/Mumbai Central-Ahmedabad Passenger

Time-Table HAS CHANGED.
Sep 02 (12:22AM)
Change Departure Station:
Change Arrival Station:
Post a Train Travel TipPost a Train Travel Tip **new
Post a Comment/Question/Picture/VideoPost a Comment/Question/Picture/Video
Pantry/Catering
✕ NO Pantry Car
✕ NO Catering
RSA - Rake Sharing
59439 and 59442 share rakes.
Rake/Coach Composition
LOCO-SLR-GEN-GEN-GEN-S3-S2-S1-LD-GEN-GEN-GEN-GEN-GEN-GEN-GEN-SLR
Loco
BL WCAM-1/BRC WAG-5A
News    PNR    Forum    Time-Table    Availability    Fare Chart    Map    Arr/Dep History    Trips    Gallery    ΣChains    X/O    Timeline    
Travel Time: 5h 12m    21 halts    Distance: 188 km    Avg Speed: 36 km/hr
Type: Passenger
Zone: WR/Western
Departs @ 12:15 (Avg on time)
Platform# 4
SMTWTFS
Mumbai Central/BCT 
Arrives @ 17:27 (Avg 13m late)
Platform# ???
SMTWTFS
Atul/ATUL 

21 halts. 42 intermediate Stations between Mumbai Central and Atul

Show ALL intermediate Stations  Show Old Time-Table

#CodeStation NameX/OArrivesAvgDepartsAvgHaltPFDay#KmSpeedElevZoneAddress
1BCTMumbai Central (9)»  -12:15+0410.0363mWRMumbai 400008, Maharashtra
2DDRMumbai Dadar Western (6)X  12:28 12:25+412:30+62 5m515.9306mWRMumbai, Maharashtra
3ADHMumbai Andheri (9)  12:52+412:54+72m8117.14412mWRMumbai, Maharashtra
4BVIMumbai Borivali (8)X  13:18 13:11+713:20+102 9m6129.73519mWRMumbai - 400092, Maharashtra
5BSRVasai Road (7)  13:50+313:52+32m4147.1467mWRVasai 401202, Maharashtra
6VRVirar (8)X  14:03+414:05+42m3155.5436mWRDist. Palghar, Maharashtra
7VTNVaitarna (2)  14:16 14:17+414:18+42 1m1164.0583mWRDist. Palghar, Maharashtra
8SAHSaphale (2)X  14:25 14:26+614:27+62 1m1171.8648mWRDist. Palghar, Maharashtra
9KLVKelve Road (3)  14:32 14:33+714:34+92 1m2178.27210mWRDist. Palghar, Maharashtra
10PLGPalghar (3)X  14:41+814:43+92m1186.65619mWRPalghar, Maharashtra
11BORBoisar (3)XO  14:55+1314:57+192m1197.91817mWRBoisar Tel.no-02525-266626, Maharashtra
12VGNVangaon (3)XO  15:28 15:29+215:30+62 1m--1107.35311mWRDist. Palghar, Maharashtra
13DRDDahanu Road (5)X  15:44+415:46+62m11119.66112mWRDahanu, Maharashtra
14GVDGholvad (4)X  15:56 15:57+515:58+62 1m--1130.86114mWRGholvad, Maharashtra
15UBRUmbargam Road (3)XO  16:07+716:09+92m11139.92730mWRUmbergaon, Gujarat
16SJNSanjan (3)X  16:20 16:21+616:22+92 1m--1145.35822mWRSanjan, Gujarat
17BLDBhilad (3)X  16:33 16:34+916:35+122 1m--1156.94833mWRBhilad, Gujarat
18KEBKarambeli (2)O  16:40 16:41+016:42+02 1m--1161.72429mWRNational Highway 8, Gujarat
19VAPIVapi (3)X  16:58+617:00+62m11168.15027mWRVapi, Gujarat
20BAGDBagwada (2)O  17:08-17:09-1m--1174.83522mWRNH8, Gujarat
21UVDUdvada (3)X  17:13 17:14+917:15+92 1m--1177.76018mWRUdvada, Gujarat
22PADPardi (3)X  17:20 17:21+1117:22+112 1m--1183.74819mWRValsad, Gujarat
23ATULAtul (3)•  17:26 17:27+1317:28+122 1m--1187.72922mWRValsad, Gujarat
24BLValsad (3)XO  17:42+518:00+418m21194.45915mWRValsad, Gujarat
25DGIDungri (3)  18:08 18:09+918:10+112 1m11203.35120mWRNH 8, Gujarat
26JRSJoravasan (2)  18:15 18:16-18:17-2 1m11208.47915mWRJoravasan, Gujarat
27BIMBilimora Junction (4)XO  18:23 18:20+1118:25+192 5m--1212.31811mWRBilimora, Gujarat
28AMLAmalsad (3)  18:44+1318:46+162m--1217.93812mWRAmalsad, Gujarat
29ACLAncheli (2)O  18:51 18:52-18:53-2 1m--1221.73420mWRNavsari, Gujarat
30VDHVedchha (3)XO  18:59+1419:01+192m--1225.12313mWRNavsari, Gujarat
31NVSNavsari (3)X  19:23+819:25+92m31233.55114mWRNavsari, Gujarat
32MRLMaroli (3)XO  19:35+1219:37+152m--1241.92515mWRMaroli, Gujarat
33SCHSachin (3)XO  19:52 19:53+1019:54+102 1m11248.64311mWRKansad Road Sachin, Gujarat
34BHETBhestan (2)  20:01 20:02+1120:03+132 1m11254.32613mWRSurat, Gujarat
35UDNUdhna Junction (3)XO  20:14+1220:16+222m11259.1716mWRUdhna 394210, Gujarat
36STSurat (4)XO  20:49+321:09+320m21263.13919mWRSurat 395001, Gujarat
37URNUtran (3)  21:15+1421:17+132m--1267.06415mWRSurat, Gujarat
38KSEKosad (2)  21:20+1721:22+202m--1270.13717mWRSurat, Gujarat
39GTXGothangam (2)XO  21:28+2121:30 21:29+212 1m--1273.81819mWRAmroli Sayan Rd, Gujarat
40SYNSayan (3)O  21:39+1721:41 21:40+222 1m--1276.85021mWRSayan Satellite town, Gujarat
41KIMKim (2)  21:52+2421:54 21:53+242 1m--1286.75218mWRNH 8, Gujarat
42KSBKosamba Junction (3)X  22:02+2022:04 22:03+202 1m--1294.53730mWRKosamba, Gujarat
43HATHathuran (2)O  22:08 22:10-22:10 22:11-2 1m--1298.93932mWRKosamba, Gujarat
44PAOPanoli (3)X  22:15 22:17+2522:17 22:18+292 1m--1302.74429mWRPanoli, Gujarat
45AKVAnkleshwar Junction (4)X  22:34 22:32+1822:36 22:33+182 1m21313.04719mWRAnkleshwar, Gujarat
46BHBharuch Junction (5)  22:50 22:45+1422:52 22:47+162m31322.45619mWRBharuch, Gujarat
47NIUNabipur (3)X  23:03 23:00+2723:05 23:02+282m--1334.45124mWRNabipur, Gujarat
48VREVarediya (4)X  23:12 23:10+3023:14 23:11+312 1m--1341.25721mWRNH 8, Gujarat
49PLJPalej (4)O  23:20 23:18+3023:22 23:19+322 1m--1347.83829mWRPalej, Gujarat
50MYGMiyagam Karjan (2)X  23:43+2523:45+242m21363.06329mWRKarjan, Gujarat
51ITAItola (4)X  23:56+3023:58+292m--1374.63027mWRNational Highway 8 Vadodara, Gujarat
52BRCVadodara Junction (7)X  00:40 00:35+1300:50 00:45+1410m--2392.93136mWRVadodara 390005, Gujarat
53BJWBajva (3)X  01:04 00:59+3301:06 01:01+352m--2400.12338mWRVadodara, Gujarat
54RNORanoli (2)  01:16 01:11+3501:18 01:13+372m--2403.98339mWRVadodara District, Gujarat
55NDRNandesari (2)  01:21 01:16-01:23 01:18-2m--2408.16042mWRNandesari, Gujarat
56VDAVasad Junction (3)XO  01:28 01:23+3801:30 01:25+372m--2413.12540mWRVasad, Gujarat
57ADDAdas Road (4)X  01:36+3601:38 01:37+362 1m--2417.73542mWRNational Highway 8, Gujarat
58VXDVadod (3)  01:44+3601:46 01:45+362 1m--2421.83744mWRAnand District, Gujarat
59ANNDAnand Junction (6)X  02:03 01:56+2202:08 02:01+225m--2428.63444mWRAnand, Gujarat
60KBRVKanjari Boriyavi Junction (4)X  02:14+3202:16 02:15+312 1m--2436.14139mWRKanjari, Gujarat
61UTDUtarsanda (4)O  02:23+3002:25 02:24+312 1m--2441.62240mWRUttarsanda, Gujarat
62NDNadiad Junction (4)XO  02:35 02:39+2202:43 02:44+208 5m--2447.14037mWRNadiad, Gujarat
63GTEGothaj (2)X  02:52 02:58+2502:54 02:59+262 1m--2456.35532mWRState Highway 3, Gujarat
64MHDMahemdavad Kheda Road (4)X  03:12 03:08+1803:14 03:09+202 1m--2464.65037mWRMahemdavad, Gujarat
65NEPNenpur (2)X  03:19 03:14-03:21 03:16-2m--2468.82935mWRState Highway 3, Gujarat
66KANJKanij (3)  03:26 03:22+1803:28 03:23+202 1m--2471.72239mWRBareja-Barejadi Rd, Gujarat
67BJDBarejadi Nandej (3)X  03:36 03:35+1803:38 03:36+212 1m--2476.02242mWRBareja-Barejadi Rd, Gujarat
68GERGeratpur (2)X  03:52 03:45+1403:54 03:46+152 1m--2479.47944mWRAhmadabad, Gujarat
69VTAVatva (4)X  03:58 03:50+2604:00 03:52+252m--2484.64849mWRDist. Ahmedabad 382445, Gujarat
70MANManinagar (2)O  04:06 03:58+004:08 04:00+02m12489.5550mWRAhmadabad, Gujarat
71ADIAhmedabad Junction (12)  04:25 04:35+3-42492.6-51mWRAhmedabad, Gujarat
Scroll to Top
Scroll to Bottom